createdAt,value
2019-02-27T00:01:53.761Z,95165.75
2019-02-27T00:04:23.467Z,95157.59
2019-02-27T00:06:53.177Z,95156.55
2019-02-27T00:09:22.920Z,95158.31
2019-02-27T00:11:52.554Z,95159.25
2019-02-27T00:14:22.182Z,95164.45
2019-02-27T00:16:51.845Z,95166.83
2019-02-27T00:19:21.492Z,95166.58
2019-02-27T00:21:51.279Z,95171.77
2019-02-27T00:24:20.922Z,95163.88
2019-02-27T00:26:50.665Z,95164.92
2019-02-27T00:29:20.304Z,95162.80
2019-02-27T00:31:49.979Z,95162.22
2019-02-27T00:34:19.576Z,95163.41
2019-02-27T00:36:49.271Z,95159.52
2019-02-27T00:39:18.939Z,95167.30
2019-02-27T00:41:48.564Z,95159.16
2019-02-27T00:44:18.167Z,95155.48
2019-02-27T00:46:47.804Z,95157.61
2019-02-27T00:49:17.401Z,95159.16
2019-02-27T00:51:47.189Z,95159.36
2019-02-27T00:54:16.785Z,95149.83
2019-02-27T00:56:46.477Z,95150.91
2019-02-27T00:59:16.139Z,95150.08
2019-02-27T01:01:47.508Z,95157.61
2019-02-27T01:04:17.177Z,95151.00
2019-02-27T01:06:47.551Z,95152.05
2019-02-27T01:09:17.931Z,95145.56
2019-02-27T01:11:51.461Z,95133.42
2019-02-27T01:14:19.029Z,95135.66
2019-02-27T01:16:50.180Z,95141.08
2019-02-27T01:19:19.960Z,95136.48
2019-02-27T01:21:49.612Z,95129.06
2019-02-27T01:24:19.232Z,95126.66
2019-02-27T01:26:48.839Z,95133.50
2019-02-27T01:29:18.786Z,95123.16
2019-02-27T01:31:48.499Z,95120.81
2019-02-27T01:34:18.361Z,95111.48
2019-02-27T01:36:48.054Z,95112.57
2019-02-27T01:39:17.641Z,95112.21
2019-02-27T01:41:47.602Z,95108.32
2019-02-27T01:44:17.210Z,95107.49
2019-02-27T01:46:46.859Z,95108.52
2019-02-27T01:49:16.821Z,95106.90
2019-02-27T01:51:46.618Z,95100.29
2019-02-27T01:54:16.237Z,95087.11
2019-02-27T01:56:45.901Z,95084.73
2019-02-27T01:59:16.909Z,95081.67
2019-02-27T02:01:46.918Z,95077.80
2019-02-27T02:04:19.976Z,95066.59
2019-02-27T02:06:47.933Z,95068.03
2019-02-27T02:09:36.184Z,95068.25
2019-02-27T02:12:19.293Z,95062.25
2019-02-27T02:14:59.312Z,95058.36
2019-02-27T02:17:45.609Z,95057.31
2019-02-27T02:20:27.239Z,95053.89
2019-02-27T02:23:19.764Z,95052.95
2019-02-27T02:26:16.269Z,95048.45
2019-02-27T02:29:40.675Z,95043.26
2019-02-27T02:32:25.855Z,95036.30
2019-02-27T02:35:16.382Z,95038.53
2019-02-27T02:38:12.419Z,95032.86
2019-02-27T02:41:01.570Z,95024.80
2019-02-27T02:44:07.952Z,95028.09
2019-02-27T02:47:21.040Z,95025.02
2019-02-27T02:50:22.421Z,95019.89
2019-02-27T02:53:11.805Z,95016.94
2019-02-27T02:56:04.265Z,95012.73
2019-02-27T02:59:13.247Z,95015.11
2019-02-27T03:01:50.200Z,95016.98
2019-02-27T03:04:47.951Z,95012.05
2019-02-27T03:07:35.407Z,95005.80
2019-02-27T03:10:18.585Z,95009.70
2019-02-27T03:12:58.398Z,95014.89
2019-02-27T03:15:56.769Z,95016.59
2019-02-27T03:18:48.838Z,95008.72
2019-02-27T03:21:53.201Z,95015.66
2019-02-27T03:24:36.123Z,95014.64
2019-02-27T03:27:18.346Z,95013.30
2019-02-27T03:30:10.217Z,95010.72
2019-02-27T03:32:57.560Z,95013.36
2019-02-27T03:35:48.116Z,95008.39
2019-02-27T03:38:55.839Z,95005.92
2019-02-27T03:41:59.312Z,95006.75
2019-02-27T03:44:55.750Z,95005.17
2019-02-27T03:47:39.721Z,95000.55
2019-02-27T03:50:30.513Z,95003.48
2019-02-27T03:53:13.412Z,94999.33
2019-02-27T03:56:09.786Z,94996.30
2019-02-27T03:59:17.719Z,95007.02
2019-02-27T04:02:14.601Z,94993.95
2019-02-27T04:05:24.384Z,94993.39
2019-02-27T04:08:08.745Z,94996.28
2019-02-27T04:10:38.487Z,95000.16
2019-02-27T04:13:08.148Z,94991.13
2019-02-27T04:15:38.018Z,94991.41
2019-02-27T04:18:05.942Z,94997.09
2019-02-27T04:20:35.534Z,94993.83
2019-02-27T04:23:11.287Z,94989.56
2019-02-27T04:25:36.803Z,94990.26
2019-02-27T04:28:06.497Z,94989.96
2019-02-27T04:30:36.258Z,94992.76
2019-02-27T04:33:06.540Z,94994.37
2019-02-27T04:35:39.364Z,94991.34
2019-02-27T04:38:07.484Z,94986.16
2019-02-27T04:40:37.159Z,94985.13
2019-02-27T04:43:06.855Z,94989.27
2019-02-27T04:45:36.458Z,94985.89
2019-02-27T04:48:06.093Z,94988.65
2019-02-27T04:50:35.686Z,94987.94
2019-02-27T04:53:05.313Z,94989.72
2019-02-27T04:55:34.924Z,94989.56
2019-02-27T04:58:08.662Z,94988.72
2019-02-27T05:00:36.179Z,94985.65
2019-02-27T05:03:05.933Z,94994.16
2019-02-27T05:05:35.598Z,94993.94
2019-02-27T05:08:06.878Z,94991.72
2019-02-27T05:10:38.137Z,94987.67
2019-02-27T05:13:07.832Z,94984.84
2019-02-27T05:15:39.489Z,94987.19
2019-02-27T05:18:08.925Z,94988.43
2019-02-27T05:20:38.595Z,94989.03
2019-02-27T05:23:08.302Z,94992.91
2019-02-27T05:25:37.900Z,94985.05
2019-02-27T05:28:07.597Z,94980.28
2019-02-27T05:30:37.310Z,94984.38
2019-02-27T05:33:06.942Z,94983.73
2019-02-27T05:35:36.639Z,94986.08
2019-02-27T05:38:06.324Z,94990.45
2019-02-27T05:40:36.123Z,94988.97
2019-02-27T05:43:05.835Z,94989.34
2019-02-27T05:45:35.494Z,94992.69
2019-02-27T05:48:05.191Z,94993.13
2019-02-27T05:50:34.916Z,94981.79
2019-02-27T05:53:04.555Z,94984.86
2019-02-27T05:55:34.163Z,94986.88
2019-02-27T05:58:03.774Z,94985.89
2019-02-27T06:00:33.447Z,94986.72
2019-02-27T06:03:03.093Z,94980.93
2019-02-27T06:05:33.668Z,94973.17
2019-02-27T06:08:04.036Z,94974.54
2019-02-27T06:10:33.740Z,94973.84
2019-02-27T06:13:03.349Z,94979.51
2019-02-27T06:15:32.987Z,94983.42
2019-02-27T06:18:02.641Z,94979.45
2019-02-27T06:20:32.311Z,94977.75
2019-02-27T06:23:04.486Z,94978.34
2019-02-27T06:25:33.346Z,94966.69
2019-02-27T06:28:02.985Z,94969.38
2019-02-27T06:30:32.744Z,94972.02
2019-02-27T06:33:02.338Z,94983.58
2019-02-27T06:35:34.245Z,94974.27
2019-02-27T06:38:03.375Z,94977.91
2019-02-27T06:40:33.032Z,94976.98
2019-02-27T06:43:02.688Z,94978.77
2019-02-27T06:45:32.338Z,94975.34
2019-02-27T06:48:01.961Z,94979.43
2019-02-27T06:50:31.628Z,94980.64
2019-02-27T06:53:01.375Z,94981.83
2019-02-27T06:55:31.280Z,94978.73
2019-02-27T06:58:00.951Z,94970.39
2019-02-27T07:00:36.755Z,94970.48
2019-02-27T07:03:06.400Z,94966.61
2019-02-27T07:05:36.065Z,94972.73
2019-02-27T07:08:05.688Z,94972.27
2019-02-27T07:10:35.373Z,94963.31
2019-02-27T07:13:05.143Z,94954.70
2019-02-27T07:15:34.736Z,94955.04
2019-02-27T07:18:06.078Z,94956.33
2019-02-27T07:20:35.773Z,94952.98
2019-02-27T07:23:05.556Z,94945.19
2019-02-27T07:25:35.224Z,94940.63
2019-02-27T07:28:08.422Z,94943.73
2019-02-27T07:30:36.317Z,94945.09
2019-02-27T07:33:06.750Z,94943.73
2019-02-27T07:35:36.960Z,94941.36
2019-02-27T07:38:06.547Z,94942.23
2019-02-27T07:40:36.193Z,94939.37
2019-02-27T07:43:06.409Z,94935.98
2019-02-27T07:45:36.165Z,94941.71
2019-02-27T07:48:05.940Z,94938.98
2019-02-27T07:50:35.625Z,94939.55
2019-02-27T07:53:05.385Z,94940.70
2019-02-27T07:55:35.044Z,94929.64
2019-02-27T07:58:04.738Z,94928.94
2019-02-27T08:00:34.536Z,94925.58
2019-02-27T08:03:04.244Z,94918.58
2019-02-27T08:05:33.953Z,94917.92
2019-02-27T08:08:03.580Z,94916.23
2019-02-27T08:10:36.711Z,94913.86
2019-02-27T08:13:04.821Z,94910.59
2019-02-27T08:15:34.573Z,94908.59
2019-02-27T08:18:04.370Z,94908.66
2019-02-27T08:20:34.262Z,94907.06
2019-02-27T08:23:03.932Z,94911.34
2019-02-27T08:25:33.566Z,94903.54
2019-02-27T08:28:03.228Z,94914.84
2019-02-27T08:30:32.912Z,94910.06
2019-02-27T08:33:02.713Z,94905.99
2019-02-27T08:35:32.575Z,94904.34
2019-02-27T08:38:02.965Z,94900.31
2019-02-27T08:40:32.912Z,94895.20
2019-02-27T08:43:02.501Z,94895.08
2019-02-27T08:45:32.094Z,94889.59
2019-02-27T08:48:01.715Z,94880.09
2019-02-27T08:50:32.263Z,94883.75
2019-02-27T08:53:01.987Z,94881.73
2019-02-27T08:55:31.629Z,94878.53
2019-02-27T08:58:01.295Z,94879.43
2019-02-27T09:00:34.554Z,94876.52
2019-02-27T09:03:04.361Z,94880.10
2019-02-27T09:05:34.128Z,94878.66
2019-02-27T09:08:03.788Z,94875.80
2019-02-27T09:10:33.476Z,94873.61
2019-02-27T09:13:05.718Z,94863.84
2019-02-27T09:15:34.599Z,94858.06
2019-02-27T09:18:04.628Z,94864.70
2019-02-27T09:20:34.374Z,94860.44
2019-02-27T09:23:04.102Z,94862.78
2019-02-27T09:25:33.788Z,94852.17
2019-02-27T09:28:03.691Z,94854.28
2019-02-27T09:30:33.402Z,94854.70
2019-02-27T09:33:02.996Z,94849.41
2019-02-27T09:35:37.756Z,94844.73
2019-02-27T09:38:03.961Z,94831.70
2019-02-27T09:40:38.653Z,94834.94
2019-02-27T09:43:06.287Z,94833.52
2019-02-27T09:45:36.966Z,94829.63
2019-02-27T09:48:06.870Z,94839.16
2019-02-27T09:50:47.668Z,94825.66
2019-02-27T09:53:14.179Z,94827.64
2019-02-27T09:55:43.962Z,94824.67
2019-02-27T09:58:14.092Z,94820.05
2019-02-27T10:00:47.403Z,94816.04
2019-02-27T10:03:21.158Z,94815.80
2019-02-27T10:05:48.943Z,94817.26
2019-02-27T10:08:18.691Z,94821.13
2019-02-27T10:10:48.475Z,94817.59
2019-02-27T10:13:18.187Z,94816.89
2019-02-27T10:15:48.254Z,94817.98
2019-02-27T10:18:18.987Z,94815.44
2019-02-27T10:20:49.322Z,94817.06
2019-02-27T10:23:19.020Z,94811.40
2019-02-27T10:25:49.921Z,94812.87
2019-02-27T10:28:19.699Z,94801.88
2019-02-27T10:30:50.097Z,94797.28
2019-02-27T10:33:20.455Z,94796.78
2019-02-27T10:35:50.246Z,94787.62
2019-02-27T10:38:20.000Z,94788.27
2019-02-27T10:40:49.692Z,94791.20
2019-02-27T10:43:21.054Z,94784.89
2019-02-27T10:45:50.883Z,94776.88
2019-02-27T10:48:20.498Z,94772.77
2019-02-27T10:50:50.167Z,94773.55
2019-02-27T10:53:19.869Z,94771.73
2019-02-27T10:55:50.029Z,94770.94
2019-02-27T10:58:19.774Z,94765.92
2019-02-27T11:00:50.295Z,94766.55
2019-02-27T11:03:19.953Z,94775.80
2019-02-27T11:05:52.327Z,94766.77
2019-02-27T11:08:21.254Z,94766.11
2019-02-27T11:10:50.916Z,94763.54
2019-02-27T11:13:20.687Z,94763.06
2019-02-27T11:15:50.444Z,94765.41
2019-02-27T11:18:20.134Z,94763.70
2019-02-27T11:20:50.040Z,94751.72
2019-02-27T11:23:19.699Z,94756.15
2019-02-27T11:25:49.465Z,94748.34
2019-02-27T11:28:19.163Z,94739.80
2019-02-27T11:30:50.942Z,94736.98
2019-02-27T11:33:25.479Z,94731.55
2019-02-27T11:35:51.738Z,94731.21
2019-02-27T11:38:24.135Z,94725.78
2019-02-27T11:40:52.989Z,94722.73
2019-02-27T11:43:23.162Z,94725.12
2019-02-27T11:45:57.795Z,94712.85
2019-02-27T11:48:24.069Z,94713.67
2019-02-27T11:50:53.762Z,94700.86
2019-02-27T11:53:23.480Z,94701.25
2019-02-27T11:55:53.084Z,94695.48
2019-02-27T11:58:22.830Z,94692.69
2019-02-27T12:00:52.530Z,94681.75
2019-02-27T12:03:22.125Z,94676.91
2019-02-27T12:05:51.814Z,94682.08
2019-02-27T12:08:22.374Z,94676.47
2019-02-27T12:10:53.015Z,94677.98
2019-02-27T12:13:22.635Z,94670.22
2019-02-27T12:15:54.274Z,94677.03
2019-02-27T12:18:24.002Z,94673.98
2019-02-27T12:20:54.168Z,94662.06
2019-02-27T12:23:23.828Z,94660.92
2019-02-27T12:25:53.523Z,94657.18
2019-02-27T12:28:23.255Z,94656.23
2019-02-27T12:30:52.952Z,94649.87
2019-02-27T12:33:22.637Z,94648.72
2019-02-27T12:35:55.006Z,94645.46
2019-02-27T12:38:24.686Z,94642.98
2019-02-27T12:40:58.239Z,94635.59
2019-02-27T12:43:25.763Z,94635.77
2019-02-27T12:45:57.703Z,94636.91
2019-02-27T12:48:26.857Z,94632.09
2019-02-27T12:50:56.605Z,94634.87
2019-02-27T12:53:26.319Z,94622.55
2019-02-27T12:55:55.977Z,94616.30
2019-02-27T12:58:25.623Z,94617.55
2019-02-27T13:00:55.291Z,94620.42
2019-02-27T13:03:24.968Z,94614.31
2019-02-27T13:05:54.700Z,94603.80
2019-02-27T13:08:24.438Z,94603.55
2019-02-27T13:10:54.142Z,94600.55
2019-02-27T13:13:25.909Z,94596.03
2019-02-27T13:15:58.182Z,94595.00
2019-02-27T13:18:31.736Z,94595.74
2019-02-27T13:20:59.262Z,94589.43
2019-02-27T13:23:28.899Z,94592.09
2019-02-27T13:26:00.540Z,94585.48
2019-02-27T13:28:30.308Z,94582.41
2019-02-27T13:30:59.919Z,94584.10
2019-02-27T13:33:29.550Z,94578.48
2019-02-27T13:35:59.809Z,94581.81
2019-02-27T13:38:30.068Z,94577.66
2019-02-27T13:40:59.698Z,94576.25
2019-02-27T13:43:29.365Z,94577.28
2019-02-27T13:45:59.062Z,94576.56
2019-02-27T13:48:28.774Z,94568.45
2019-02-27T13:50:59.343Z,94565.16
2019-02-27T13:53:29.867Z,94563.84
2019-02-27T13:55:59.490Z,94559.37
2019-02-27T13:58:29.107Z,94553.46
2019-02-27T14:00:58.898Z,94559.28
2019-02-27T14:03:28.540Z,94554.19
2019-02-27T14:05:58.206Z,94555.12
2019-02-27T14:08:29.052Z,94551.15
2019-02-27T14:10:59.374Z,94554.56
2019-02-27T14:13:30.805Z,94550.41
2019-02-27T14:16:01.524Z,94551.14
2019-02-27T14:18:31.364Z,94550.63
2019-02-27T14:21:01.654Z,94551.03
2019-02-27T14:23:32.037Z,94559.82
2019-02-27T14:26:05.644Z,94550.30
2019-02-27T14:28:33.224Z,94549.58
2019-02-27T14:31:02.929Z,94554.72
2019-02-27T14:33:32.515Z,94547.70
2019-02-27T14:36:02.291Z,94543.95
2019-02-27T14:38:31.892Z,94539.67
2019-02-27T14:41:01.669Z,94538.34
2019-02-27T14:43:31.483Z,94549.86
2019-02-27T14:46:01.852Z,94540.05
2019-02-27T14:48:31.478Z,94541.60
2019-02-27T14:51:01.056Z,94539.23
2019-02-27T14:53:30.750Z,94533.78
2019-02-27T14:56:00.427Z,94534.97
2019-02-27T14:58:30.050Z,94538.64
2019-02-27T15:00:59.791Z,94527.58
2019-02-27T15:03:30.135Z,94530.23
2019-02-27T15:05:59.832Z,94520.95
2019-02-27T15:08:29.471Z,94520.50
2019-02-27T15:10:59.149Z,94512.78
2019-02-27T15:13:28.977Z,94522.36
2019-02-27T15:15:58.774Z,94516.84
2019-02-27T15:18:28.472Z,94517.52
2019-02-27T15:20:58.144Z,94513.50
2019-02-27T15:23:28.380Z,94509.52
2019-02-27T15:25:58.131Z,94505.09
2019-02-27T15:28:33.054Z,94506.72
2019-02-27T15:30:59.171Z,94506.86
2019-02-27T15:33:28.897Z,94506.59
2019-02-27T15:35:58.645Z,94504.06
2019-02-27T15:38:28.319Z,94503.19
2019-02-27T15:41:02.381Z,94500.14
2019-02-27T15:43:29.413Z,94498.61
2019-02-27T15:45:59.221Z,94491.83
2019-02-27T15:48:28.832Z,94495.45
2019-02-27T15:50:58.430Z,94494.47
2019-02-27T15:53:28.404Z,94490.00
2019-02-27T15:55:58.217Z,94486.15
2019-02-27T15:58:28.101Z,94486.89
2019-02-27T16:00:58.489Z,94486.10
2019-02-27T16:03:28.269Z,94481.83
2019-02-27T16:05:57.981Z,94480.48
2019-02-27T16:08:27.610Z,94486.35
2019-02-27T16:10:57.281Z,94483.54
2019-02-27T16:13:26.924Z,94489.93
2019-02-27T16:15:56.842Z,94484.84
2019-02-27T16:18:26.522Z,94488.75
2019-02-27T16:20:56.240Z,94486.48
2019-02-27T16:23:25.892Z,94488.95
2019-02-27T16:25:56.589Z,94494.80
2019-02-27T16:28:26.286Z,94498.52
2019-02-27T16:30:56.071Z,94494.81
2019-02-27T16:33:25.868Z,94491.72
2019-02-27T16:35:55.523Z,94494.37
2019-02-27T16:38:25.226Z,94499.84
2019-02-27T16:40:54.904Z,94493.94
2019-02-27T16:43:24.558Z,94494.22
2019-02-27T16:45:54.252Z,94491.83
2019-02-27T16:48:23.906Z,94492.83
2019-02-27T16:50:53.591Z,94489.12
2019-02-27T16:53:23.241Z,94487.88
2019-02-27T16:55:52.927Z,94487.41
2019-02-27T16:58:22.549Z,94494.72
2019-02-27T17:00:55.225Z,94495.14
2019-02-27T17:03:23.730Z,94490.27
2019-02-27T17:05:53.354Z,94492.09
2019-02-27T17:08:23.079Z,94493.92
2019-02-27T17:10:52.794Z,94493.91
2019-02-27T17:13:22.542Z,94486.88
2019-02-27T17:15:52.198Z,94494.13
2019-02-27T17:18:27.853Z,94487.68
2019-02-27T17:20:53.256Z,94490.37
2019-02-27T17:23:22.839Z,94484.02
2019-02-27T17:25:52.502Z,94487.39
2019-02-27T17:28:22.091Z,94482.59
2019-02-27T17:30:51.735Z,94484.95
2019-02-27T17:33:21.383Z,94482.52
2019-02-27T17:35:53.043Z,94483.67
2019-02-27T17:38:22.479Z,94480.41
2019-02-27T17:40:52.555Z,94484.11
2019-02-27T17:43:22.284Z,94484.11
2019-02-27T17:45:52.044Z,94481.89
2019-02-27T17:48:21.672Z,94484.05
2019-02-27T17:50:51.352Z,94476.63
2019-02-27T17:53:22.895Z,94475.36
2019-02-27T17:55:52.383Z,94479.39
2019-02-27T17:58:22.080Z,94479.08
2019-02-27T18:01:05.611Z,94475.18
2019-02-27T18:03:36.658Z,94474.34
2019-02-27T18:06:06.826Z,94472.09
2019-02-27T18:08:36.559Z,94474.40
2019-02-27T18:11:06.249Z,94475.71
2019-02-27T18:13:36.295Z,94475.17
2019-02-27T18:16:06.444Z,94471.18
2019-02-27T18:18:36.112Z,94469.34
2019-02-27T18:21:06.124Z,94473.19
2019-02-27T18:23:35.757Z,94476.17
2019-02-27T18:26:05.686Z,94466.77
2019-02-27T18:28:35.300Z,94470.73
2019-02-27T18:31:05.241Z,94470.84
2019-02-27T18:33:34.926Z,94466.03
2019-02-27T18:36:05.838Z,94465.78
2019-02-27T18:38:35.656Z,94462.83
2019-02-27T18:41:05.354Z,94453.97
2019-02-27T18:43:35.105Z,94460.58
2019-02-27T18:46:04.834Z,94455.67
2019-02-27T18:48:34.589Z,94454.95
2019-02-27T18:51:04.469Z,94453.70
2019-02-27T18:53:34.120Z,94452.66
2019-02-27T18:56:03.756Z,94458.67
2019-02-27T18:58:33.870Z,94459.81
2019-02-27T19:01:09.501Z,94446.05
2019-02-27T19:03:36.684Z,94455.88
2019-02-27T19:06:06.482Z,94439.66
2019-02-27T19:08:36.201Z,94439.97
2019-02-27T19:11:06.216Z,94437.13
2019-02-27T19:13:36.000Z,94438.02
2019-02-27T19:16:05.949Z,94429.81
2019-02-27T19:18:35.714Z,94427.73
2019-02-27T19:21:05.580Z,94426.58
2019-02-27T19:23:35.335Z,94426.95
2019-02-27T19:26:06.359Z,94425.25
2019-02-27T19:28:36.696Z,94427.88
2019-02-27T19:31:06.896Z,94427.16
2019-02-27T19:33:36.930Z,94430.52
2019-02-27T19:36:06.740Z,94425.55
2019-02-27T19:38:36.339Z,94424.47
2019-02-27T19:41:06.316Z,94425.52
2019-02-27T19:43:36.035Z,94417.36
2019-02-27T19:46:06.995Z,94420.34
2019-02-27T19:48:37.308Z,94421.73
2019-02-27T19:51:07.169Z,94424.08
2019-02-27T19:53:39.363Z,94421.51
2019-02-27T19:56:08.573Z,94420.55
2019-02-27T19:58:38.332Z,94415.20
2019-02-27T20:01:09.769Z,94411.41
2019-02-27T20:03:39.709Z,94403.94
2019-02-27T20:06:09.457Z,94402.61
2019-02-27T20:08:44.480Z,94402.63
2019-02-27T20:11:11.069Z,94400.02
2019-02-27T20:13:40.680Z,94399.20
2019-02-27T20:16:10.419Z,94398.41
2019-02-27T20:18:40.579Z,94392.86
2019-02-27T20:21:11.671Z,94397.72
2019-02-27T20:23:41.357Z,94390.38
2019-02-27T20:26:14.047Z,94379.45
2019-02-27T20:28:42.625Z,94383.08
2019-02-27T20:31:12.430Z,94378.16
2019-02-27T20:33:43.757Z,94376.22
2019-02-27T20:36:13.549Z,94377.21
2019-02-27T20:38:44.187Z,94377.19
2019-02-27T20:41:14.073Z,94377.53
2019-02-27T20:43:43.747Z,94381.79
2019-02-27T20:46:14.747Z,94380.16
2019-02-27T20:48:44.955Z,94379.51
2019-02-27T20:51:14.943Z,94378.05
2019-02-27T20:53:45.607Z,94382.44
2019-02-27T20:56:15.293Z,94384.70
2019-02-27T20:58:44.998Z,94385.35
2019-02-27T21:01:14.736Z,94381.44
2019-02-27T21:03:44.373Z,94373.28
2019-02-27T21:06:14.048Z,94384.70
2019-02-27T21:08:43.803Z,94386.02
2019-02-27T21:11:13.545Z,94385.66
2019-02-27T21:13:43.136Z,94376.16
2019-02-27T21:16:12.890Z,94376.47
2019-02-27T21:18:42.576Z,94371.54
2019-02-27T21:21:48.029Z,94370.82
2019-02-27T21:24:16.551Z,94371.92
2019-02-27T21:26:44.993Z,94371.44
2019-02-27T21:29:13.675Z,94369.80
2019-02-27T21:31:42.106Z,94368.20
2019-02-27T21:34:10.599Z,94365.70
2019-02-27T21:36:39.092Z,94366.52
2019-02-27T21:39:07.604Z,94365.69
2019-02-27T21:41:36.090Z,94362.54
2019-02-27T21:44:04.626Z,94364.81
2019-02-27T21:46:33.057Z,94360.20
2019-02-27T21:49:01.507Z,94363.15
2019-02-27T21:51:30.023Z,94359.19
2019-02-27T21:54:03.482Z,94362.06
2019-02-27T21:56:28.791Z,94355.88
2019-02-27T21:58:57.338Z,94363.48
2019-02-27T22:01:25.843Z,94360.41
2019-02-27T22:03:54.338Z,94358.42
2019-02-27T22:06:24.688Z,94353.47
2019-02-27T22:08:53.049Z,94354.08
2019-02-27T22:11:24.257Z,94353.67
2019-02-27T22:13:51.810Z,94350.84
2019-02-27T22:16:20.275Z,94347.16
2019-02-27T22:18:48.711Z,94345.43
2019-02-27T22:21:17.165Z,94350.35
2019-02-27T22:23:46.031Z,94353.55
2019-02-27T22:26:14.557Z,94353.28
2019-02-27T22:28:43.027Z,94353.08
2019-02-27T22:31:11.457Z,94360.06
2019-02-27T22:33:40.023Z,94356.88
2019-02-27T22:36:12.349Z,94349.84
2019-02-27T22:38:38.696Z,94347.73
2019-02-27T22:41:09.499Z,94349.70
2019-02-27T22:43:37.308Z,94348.95
2019-02-27T22:46:05.872Z,94349.56
2019-02-27T22:48:34.590Z,94347.03
2019-02-27T22:51:03.100Z,94347.45
2019-02-27T22:53:31.510Z,94344.78
2019-02-27T22:55:59.980Z,94342.57
2019-02-27T22:58:28.432Z,94344.14
2019-02-27T23:01:06.811Z,94341.69
2019-02-27T23:03:46.840Z,94336.08
2019-02-27T23:06:15.264Z,94339.77
2019-02-27T23:08:43.941Z,94344.48
2019-02-27T23:11:12.542Z,94336.20
2019-02-27T23:13:44.131Z,94337.20
2019-02-27T23:16:13.715Z,94333.61
2019-02-27T23:18:42.101Z,94336.39
2019-02-27T23:21:10.717Z,94335.84
2019-02-27T23:23:39.211Z,94338.63
2019-02-27T23:26:07.713Z,94332.03
2019-02-27T23:28:36.296Z,94327.62
2019-02-27T23:31:04.857Z,94324.58
2019-02-27T23:33:35.980Z,94323.02
2019-02-27T23:36:03.547Z,94324.94
2019-02-27T23:38:34.738Z,94319.91
2019-02-27T23:41:02.234Z,94310.25
2019-02-27T23:43:34.031Z,94308.65
2019-02-27T23:46:00.803Z,94307.58
2019-02-27T23:48:29.281Z,94308.00
2019-02-27T23:50:57.845Z,94306.01
2019-02-27T23:53:27.181Z,94303.62
2019-02-27T23:55:56.412Z,94292.67
2019-02-27T23:58:24.903Z,94300.28
